createdAt,value
2022-12-28T00:02:13.973Z,-1.07
2022-12-28T00:04:40.496Z,-1.12
2022-12-28T00:07:07.447Z,-1.18
2022-12-28T00:09:33.915Z,-1.29
2022-12-28T00:12:00.522Z,-1.37
2022-12-28T00:14:27.593Z,-1.39
2022-12-28T00:16:54.205Z,-1.39
2022-12-28T00:19:20.634Z,-1.36
2022-12-28T00:21:47.116Z,-1.37
2022-12-28T00:24:20.641Z,-1.35
2022-12-28T00:26:47.152Z,-1.36
2022-12-28T00:29:13.679Z,-1.41
2022-12-28T00:31:40.131Z,-1.46
2022-12-28T00:34:06.814Z,-1.51
2022-12-28T00:37:08.701Z,-1.57
2022-12-28T00:39:20.283Z,-1.56
2022-12-28T00:41:46.763Z,-1.55
2022-12-28T00:44:13.223Z,-1.53
2022-12-28T00:46:39.705Z,-1.48
2022-12-28T00:49:06.167Z,-1.45
2022-12-28T00:51:32.568Z,-1.42
2022-12-28T00:53:59.350Z,-1.41
2022-12-28T00:56:25.871Z,-1.37
2022-12-28T00:58:55.871Z,-1.36
2022-12-28T01:01:22.620Z,-1.31
2022-12-28T01:03:49.243Z,-1.30
2022-12-28T01:06:16.974Z,-1.27
2022-12-28T01:08:43.434Z,-1.25
2022-12-28T01:11:23.044Z,-1.27
2022-12-28T01:13:49.731Z,-1.26
2022-12-28T01:16:17.046Z,-1.32
2022-12-28T01:18:44.105Z,-1.36
2022-12-28T01:21:14.915Z,-1.38
2022-12-28T01:23:41.329Z,-1.38
2022-12-28T01:26:07.994Z,-1.39
2022-12-28T01:28:34.485Z,-1.39
2022-12-28T01:31:07.866Z,-1.35
2022-12-28T01:33:34.319Z,-1.31
2022-12-28T01:36:05.597Z,-1.32
2022-12-28T01:38:32.011Z,-1.31
2022-12-28T01:40:58.479Z,-1.28
2022-12-28T01:43:44.223Z,-1.29
2022-12-28T01:46:20.784Z,-1.28
2022-12-28T01:48:50.354Z,-1.28
2022-12-28T01:51:17.588Z,-1.32
2022-12-28T01:53:44.058Z,-1.35
2022-12-28T01:56:10.526Z,-1.33
2022-12-28T01:58:37.201Z,-1.36
2022-12-28T02:01:03.818Z,-1.43
2022-12-28T02:03:31.313Z,-1.44
2022-12-28T02:05:58.235Z,-1.45
2022-12-28T02:08:27.682Z,-1.47
2022-12-28T02:10:54.087Z,-1.48
2022-12-28T02:13:20.744Z,-1.47
2022-12-28T02:15:47.257Z,-1.46
2022-12-28T02:18:14.228Z,-1.48
2022-12-28T02:20:55.903Z,-1.48
2022-12-28T02:23:31.608Z,-1.48
2022-12-28T02:26:16.951Z,-1.49
2022-12-28T02:29:02.171Z,-1.50
2022-12-28T02:31:41.688Z,-1.41
2022-12-28T02:34:14.343Z,-1.38
2022-12-28T02:36:42.100Z,-1.39
2022-12-28T02:39:09.390Z,-1.37
2022-12-28T02:41:35.941Z,-1.36
2022-12-28T02:44:02.413Z,-1.36
2022-12-28T02:46:47.965Z,-1.37
2022-12-28T02:49:37.120Z,-1.37
2022-12-28T02:52:22.402Z,-1.35
2022-12-28T02:55:10.722Z,-1.33
2022-12-28T02:57:37.167Z,-1.37
2022-12-28T03:00:05.110Z,-1.38
2022-12-28T03:02:31.698Z,-1.39
2022-12-28T03:05:41.483Z,-1.39
2022-12-28T03:08:20.550Z,-1.43
2022-12-28T03:10:50.356Z,-1.46
2022-12-28T03:13:43.389Z,-1.49
2022-12-28T03:16:18.140Z,-1.50
2022-12-28T03:19:03.736Z,-1.52
2022-12-28T03:21:48.801Z,-1.52
2022-12-28T03:24:33.938Z,-1.51
2022-12-28T03:27:19.109Z,-1.53
2022-12-28T03:30:06.419Z,-1.49
2022-12-28T03:32:32.858Z,-1.45
2022-12-28T03:34:59.329Z,-1.44
2022-12-28T03:37:25.832Z,-1.39
2022-12-28T03:40:00.171Z,-1.35
2022-12-28T03:42:46.276Z,-1.32
2022-12-28T03:45:46.131Z,-1.32
2022-12-28T03:48:07.191Z,-1.29
2022-12-28T03:50:40.122Z,-1.29
2022-12-28T03:53:06.996Z,-1.31
2022-12-28T03:55:33.526Z,-1.31
2022-12-28T03:57:59.982Z,-1.31
2022-12-28T04:00:26.430Z,-1.31
2022-12-28T04:02:53.193Z,-1.29
2022-12-28T04:05:21.474Z,-1.31
2022-12-28T04:07:47.903Z,-1.28
2022-12-28T04:10:14.386Z,-1.28
2022-12-28T04:12:40.849Z,-1.27
2022-12-28T04:15:07.506Z,-1.26
2022-12-28T04:17:34.016Z,-1.26
2022-12-28T04:20:00.584Z,-1.29
2022-12-28T04:22:27.177Z,-1.28
2022-12-28T04:24:53.642Z,-1.24
2022-12-28T04:27:20.111Z,-1.24
2022-12-28T04:29:46.578Z,-1.20
2022-12-28T04:32:13.037Z,-2.02
2022-12-28T04:34:44.739Z,-1.17
2022-12-28T04:37:14.630Z,-1.11
2022-12-28T04:39:55.690Z,-1.10
2022-12-28T04:42:23.998Z,-1.07
2022-12-28T04:44:50.443Z,-1.07
2022-12-28T04:47:16.914Z,-1.04
2022-12-28T04:49:43.421Z,-1.03
2022-12-28T04:52:09.881Z,-1.04
2022-12-28T04:54:36.318Z,-1.02
2022-12-28T04:57:02.922Z,-1.00
2022-12-28T04:59:29.343Z,-1.00
2022-12-28T05:01:55.886Z,-1.00
2022-12-28T05:04:22.510Z,-0.99
2022-12-28T05:06:48.979Z,-0.97
2022-12-28T05:09:15.498Z,-0.97
2022-12-28T05:11:41.981Z,-0.97
2022-12-28T05:14:08.433Z,-0.99
2022-12-28T05:16:34.948Z,-0.98
2022-12-28T05:19:01.483Z,-0.97
2022-12-28T05:21:28.111Z,-0.93
2022-12-28T05:23:54.754Z,-0.90
2022-12-28T05:26:22.051Z,-0.89
2022-12-28T05:28:48.542Z,-0.88
2022-12-28T05:31:15.859Z,-0.82
2022-12-28T05:33:42.541Z,-0.75
2022-12-28T05:36:09.044Z,-0.74
2022-12-28T05:38:35.590Z,-0.78
2022-12-28T05:41:09.021Z,-0.80
2022-12-28T05:43:35.569Z,-0.85
2022-12-28T05:46:05.955Z,-0.84
2022-12-28T05:48:33.282Z,-0.89
2022-12-28T05:51:00.682Z,-0.91
2022-12-28T05:53:28.140Z,-0.95
2022-12-28T05:55:59.652Z,-0.94
2022-12-28T05:58:26.094Z,-0.93
2022-12-28T06:00:52.525Z,-0.90
2022-12-28T06:03:19.071Z,-0.85
2022-12-28T06:05:45.577Z,-0.73
2022-12-28T06:08:12.083Z,-0.71
2022-12-28T06:10:38.622Z,-0.67
2022-12-28T06:13:05.071Z,-0.57
2022-12-28T06:15:31.512Z,-0.49
2022-12-28T06:17:57.942Z,-0.42
2022-12-28T06:20:24.394Z,-0.39
2022-12-28T06:22:50.844Z,-0.36
2022-12-28T06:25:17.337Z,-0.35
2022-12-28T06:27:43.859Z,-0.33
2022-12-28T06:30:10.683Z,-0.29
2022-12-28T06:32:37.160Z,-0.29
2022-12-28T06:35:03.802Z,-0.27
2022-12-28T06:37:30.245Z,-0.23
2022-12-28T06:39:56.736Z,-0.24
2022-12-28T06:42:23.195Z,-0.23
2022-12-28T06:44:49.724Z,-0.22
2022-12-28T06:47:16.200Z,-0.18
2022-12-28T06:49:42.632Z,-0.19
2022-12-28T06:52:09.064Z,-0.17
2022-12-28T06:54:35.565Z,-0.19
2022-12-28T06:57:02.376Z,-0.20
2022-12-28T06:59:28.828Z,-0.23
2022-12-28T07:01:55.599Z,-0.23
2022-12-28T07:04:22.103Z,-0.19
2022-12-28T07:06:48.617Z,-0.18
2022-12-28T07:09:15.549Z,-0.15
2022-12-28T07:11:42.431Z,-0.09
2022-12-28T07:14:08.925Z,-0.08
2022-12-28T07:19:00.872Z,-0.03
2022-12-28T07:21:31.729Z,0.01
2022-12-28T07:23:58.329Z,0.10
2022-12-28T07:26:25.971Z,0.24
2022-12-28T07:28:53.010Z,0.38
2022-12-28T07:31:23.482Z,0.47
2022-12-28T07:33:50.486Z,0.50
2022-12-28T07:36:17.644Z,0.61
2022-12-28T07:38:44.420Z,0.71
2022-12-28T07:41:14.775Z,0.79
2022-12-28T07:43:41.289Z,0.88
2022-12-28T07:46:11.975Z,0.99
2022-12-28T07:48:38.474Z,1.11
2022-12-28T07:51:15.043Z,1.22
2022-12-28T07:53:41.922Z,1.29
2022-12-28T07:56:08.449Z,1.44
2022-12-28T07:58:34.990Z,1.51
2022-12-28T08:01:05.503Z,1.57
2022-12-28T08:03:32.776Z,1.65
2022-12-28T08:06:09.538Z,1.79
2022-12-28T08:08:36.594Z,1.85
2022-12-28T08:14:31.193Z,2.05
2022-12-28T08:16:57.732Z,2.08
2022-12-28T08:19:24.307Z,2.15
2022-12-28T08:21:50.721Z,2.20
2022-12-28T08:24:18.001Z,2.25
2022-12-28T08:26:44.571Z,2.32
2022-12-28T08:29:12.494Z,2.38
2022-12-28T08:31:40.536Z,2.51
2022-12-28T08:34:07.934Z,2.76
2022-12-28T08:36:34.465Z,3.29
2022-12-28T08:39:01.192Z,3.95
2022-12-28T08:41:27.996Z,4.65
2022-12-28T08:43:54.466Z,5.13
2022-12-28T08:46:28.215Z,5.53
2022-12-28T08:48:55.312Z,5.79
2022-12-28T08:51:21.774Z,6.17
2022-12-28T08:53:48.357Z,6.49
2022-12-28T08:56:25.178Z,6.88
2022-12-28T08:58:51.737Z,7.41
2022-12-28T09:01:22.294Z,8.04
2022-12-28T09:03:49.862Z,8.36
2022-12-28T09:06:18.193Z,8.23
2022-12-28T09:08:56.868Z,7.91
2022-12-28T09:11:31.350Z,7.51
2022-12-28T09:13:57.902Z,7.13
2022-12-28T09:16:26.484Z,6.76
2022-12-28T09:18:53.505Z,6.33
2022-12-28T09:21:20.206Z,5.91
2022-12-28T09:23:46.974Z,5.57
2022-12-28T09:26:14.503Z,5.26
2022-12-28T09:28:44.697Z,4.95
2022-12-28T09:31:11.242Z,4.71
2022-12-28T09:36:43.628Z,4.22
2022-12-28T09:39:12.461Z,4.04
2022-12-28T09:41:48.575Z,3.90
2022-12-28T09:44:18.089Z,3.85
2022-12-28T09:46:51.940Z,3.78
2022-12-28T09:49:18.784Z,3.74
2022-12-28T09:51:55.443Z,3.69
2022-12-28T09:54:22.073Z,3.67
2022-12-28T09:56:48.557Z,3.66
2022-12-28T09:59:19.561Z,3.59
2022-12-28T10:01:46.196Z,3.55
2022-12-28T10:04:12.737Z,3.43
2022-12-28T10:06:40.451Z,3.37
2022-12-28T10:09:21.942Z,3.39
2022-12-28T10:11:48.404Z,3.34
2022-12-28T10:14:21.051Z,3.38
2022-12-28T10:16:48.883Z,3.38
2022-12-28T10:19:19.258Z,3.36
2022-12-28T10:21:45.901Z,3.40
2022-12-28T10:24:30.759Z,3.40
2022-12-28T10:26:59.014Z,3.45
2022-12-28T10:29:26.211Z,3.41
2022-12-28T10:32:12.711Z,3.44
2022-12-28T10:34:46.339Z,3.39
2022-12-28T10:37:16.279Z,3.40
2022-12-28T10:39:49.914Z,3.38
2022-12-28T10:42:31.702Z,3.42
2022-12-28T10:45:02.605Z,3.42
2022-12-28T10:47:30.664Z,3.45
2022-12-28T10:50:35.543Z,3.48
2022-12-28T10:52:43.685Z,3.50
2022-12-28T10:55:45.510Z,3.55
2022-12-28T10:58:33.236Z,3.59
2022-12-28T11:01:08.124Z,3.62
2022-12-28T11:03:36.915Z,3.64
2022-12-28T11:06:13.877Z,3.68
2022-12-28T11:08:40.548Z,3.71
2022-12-28T11:11:07.319Z,3.70
2022-12-28T11:13:33.805Z,3.72
2022-12-28T11:16:00.427Z,3.84
2022-12-28T11:18:26.889Z,3.91
2022-12-28T11:20:53.655Z,3.97
2022-12-28T11:23:26.565Z,4.00
2022-12-28T11:25:53.186Z,3.99
2022-12-28T11:28:20.237Z,4.02
2022-12-28T11:30:49.046Z,4.02
2022-12-28T11:33:34.243Z,4.06
2022-12-28T11:36:02.536Z,4.08
2022-12-28T11:38:45.221Z,4.03
2022-12-28T11:41:12.711Z,3.94
2022-12-28T11:43:40.218Z,3.95
2022-12-28T11:46:06.711Z,3.98
2022-12-28T11:48:45.106Z,3.97
2022-12-28T11:51:18.822Z,3.97
2022-12-28T11:53:45.331Z,3.97
2022-12-28T11:56:11.745Z,3.98
2022-12-28T11:58:41.256Z,4.01
2022-12-28T12:01:11.346Z,4.04
2022-12-28T12:04:01.064Z,4.03
2022-12-28T12:06:43.091Z,4.03
2022-12-28T12:09:21.652Z,4.10
2022-12-28T12:11:48.562Z,4.13
2022-12-28T12:14:15.652Z,4.12
2022-12-28T12:16:52.206Z,4.17
2022-12-28T12:19:28.866Z,4.25
2022-12-28T12:22:12.858Z,4.34
2022-12-28T12:24:49.945Z,4.50
2022-12-28T12:27:18.907Z,4.65
2022-12-28T12:29:47.082Z,4.72
2022-12-28T12:32:13.508Z,4.74
2022-12-28T12:34:44.870Z,4.28
2022-12-28T12:37:30.166Z,4.90
2022-12-28T12:40:11.951Z,4.99
2022-12-28T12:42:38.498Z,5.00
2022-12-28T12:45:23.730Z,5.08
2022-12-28T12:48:00.279Z,5.15
2022-12-28T12:50:49.262Z,5.19
2022-12-28T12:53:15.669Z,5.27
2022-12-28T12:55:45.198Z,5.29
2022-12-28T12:58:20.864Z,5.35
2022-12-28T13:01:06.124Z,5.39
2022-12-28T13:03:34.275Z,5.40
2022-12-28T13:06:00.935Z,5.39
2022-12-28T13:08:50.777Z,5.37
2022-12-28T13:11:17.396Z,5.34
2022-12-28T13:13:44.557Z,5.42
2022-12-28T13:16:11.680Z,5.42
2022-12-28T13:18:46.062Z,5.34
2022-12-28T13:21:16.881Z,5.24
2022-12-28T13:23:43.796Z,5.20
2022-12-28T13:26:10.235Z,5.10
2022-12-28T13:28:36.780Z,5.08
2022-12-28T13:31:08.600Z,5.04
2022-12-28T13:33:35.126Z,5.01
2022-12-28T13:36:19.516Z,4.98
2022-12-28T13:38:46.254Z,4.89
2022-12-28T13:41:20.047Z,4.74
2022-12-28T13:43:46.579Z,4.67
2022-12-28T13:46:13.383Z,4.62
2022-12-28T13:48:40.930Z,4.55
2022-12-28T13:51:10.985Z,4.49
2022-12-28T13:53:37.494Z,4.42
2022-12-28T13:56:04.673Z,4.39
2022-12-28T13:58:35.581Z,4.44
2022-12-28T14:01:03.351Z,4.47
2022-12-28T14:03:34.556Z,4.42
2022-12-28T14:06:04.097Z,4.33
2022-12-28T14:08:33.145Z,4.24
2022-12-28T14:10:59.610Z,4.19
2022-12-28T14:13:26.071Z,4.10
2022-12-28T14:15:52.691Z,4.04
2022-12-28T14:18:19.507Z,3.96
2022-12-28T14:20:49.607Z,3.88
2022-12-28T14:23:22.976Z,3.83
2022-12-28T14:25:49.576Z,3.79
2022-12-28T14:28:21.143Z,3.74
2022-12-28T14:30:51.195Z,3.65
2022-12-28T14:33:27.472Z,3.59
2022-12-28T14:35:56.477Z,3.53
2022-12-28T14:38:23.600Z,3.45
2022-12-28T14:40:53.978Z,3.47
2022-12-28T14:43:24.724Z,3.44
2022-12-28T14:46:06.739Z,3.41
2022-12-28T14:48:38.207Z,3.40
2022-12-28T14:51:05.801Z,3.33
2022-12-28T14:53:32.237Z,3.26
2022-12-28T14:56:25.157Z,3.24
2022-12-28T14:58:52.894Z,3.15
2022-12-28T15:01:21.234Z,3.15
2022-12-28T15:03:57.478Z,3.16
2022-12-28T15:06:27.684Z,3.14
2022-12-28T15:08:55.649Z,3.05
2022-12-28T15:11:23.092Z,3.00
2022-12-28T15:13:49.637Z,3.03
2022-12-28T15:16:17.905Z,3.02
2022-12-28T15:18:47.542Z,3.03
2022-12-28T15:21:14.553Z,3.00
2022-12-28T15:23:41.069Z,2.97
2022-12-28T15:26:15.145Z,2.90
2022-12-28T15:28:54.028Z,2.84
2022-12-28T15:31:20.790Z,2.80
2022-12-28T15:33:47.394Z,2.76
2022-12-28T15:36:17.658Z,2.74
2022-12-28T15:38:44.988Z,2.71
2022-12-28T15:41:31.248Z,2.70
2022-12-28T15:43:57.746Z,2.65
2022-12-28T15:46:24.234Z,2.61
2022-12-28T15:48:50.805Z,2.56
2022-12-28T15:51:17.909Z,2.52
2022-12-28T15:53:44.619Z,2.49
2022-12-28T15:56:24.479Z,2.41
2022-12-28T15:58:54.867Z,2.42
2022-12-28T16:01:22.021Z,2.43
2022-12-28T16:03:49.394Z,2.45
2022-12-28T16:06:16.073Z,2.46
2022-12-28T16:08:42.676Z,2.48
2022-12-28T16:11:29.740Z,2.51
2022-12-28T16:14:16.633Z,2.50
2022-12-28T16:16:43.916Z,2.46
2022-12-28T16:19:11.555Z,2.47
2022-12-28T16:21:39.506Z,2.45
2022-12-28T16:24:06.974Z,2.47
2022-12-28T16:26:33.468Z,2.48
2022-12-28T16:29:00.466Z,2.48
2022-12-28T16:31:29.230Z,2.49
2022-12-28T16:34:03.082Z,2.48
2022-12-28T16:36:29.976Z,2.45
2022-12-28T16:38:56.756Z,2.43
2022-12-28T16:41:23.336Z,2.43
2022-12-28T16:43:49.906Z,2.40
2022-12-28T16:46:16.399Z,2.38
2022-12-28T16:48:43.111Z,2.36
2022-12-28T16:51:09.688Z,2.36
2022-12-28T16:53:36.522Z,2.37
2022-12-28T16:56:03.750Z,2.34
2022-12-28T16:58:30.414Z,2.35
2022-12-28T17:00:57.287Z,2.33
2022-12-28T17:03:23.987Z,2.30
2022-12-28T17:05:50.887Z,2.26
2022-12-28T17:08:17.558Z,2.20
2022-12-28T17:10:44.470Z,2.20
2022-12-28T17:13:11.055Z,2.17
2022-12-28T17:15:45.966Z,2.15
2022-12-28T17:18:13.013Z,2.13
2022-12-28T17:20:39.595Z,2.12
2022-12-28T17:23:06.202Z,2.15
2022-12-28T17:25:33.181Z,2.18
2022-12-28T17:27:59.865Z,2.18
2022-12-28T17:30:26.643Z,2.17
2022-12-28T17:32:53.168Z,2.17
2022-12-28T17:35:19.632Z,2.18
2022-12-28T17:37:46.163Z,2.20
2022-12-28T17:40:12.741Z,2.18
2022-12-28T17:42:39.249Z,2.23
2022-12-28T17:45:11.151Z,2.27
2022-12-28T17:47:38.432Z,2.30
2022-12-28T17:50:05.200Z,2.29
2022-12-28T17:52:31.673Z,2.28
2022-12-28T17:54:58.161Z,2.24
2022-12-28T17:57:24.640Z,2.27
2022-12-28T17:59:51.182Z,2.23
2022-12-28T18:02:17.765Z,2.24
2022-12-28T18:04:44.467Z,2.26
2022-12-28T18:07:10.902Z,2.31
2022-12-28T18:09:37.348Z,2.38
2022-12-28T18:12:03.881Z,2.45
2022-12-28T18:14:30.331Z,2.47
2022-12-28T18:16:57.117Z,2.49
2022-12-28T18:19:23.874Z,2.47
2022-12-28T18:21:50.357Z,2.49
2022-12-28T18:24:18.067Z,2.52
2022-12-28T18:26:44.642Z,2.58
2022-12-28T18:29:11.160Z,2.60
2022-12-28T18:31:37.717Z,2.63
2022-12-28T18:34:05.150Z,2.64
2022-12-28T18:36:31.581Z,2.64
2022-12-28T18:38:58.051Z,2.62
2022-12-28T18:41:27.702Z,2.60
2022-12-28T18:44:00.219Z,2.63
2022-12-28T18:46:28.894Z,2.69
2022-12-28T18:48:56.954Z,2.75
2022-12-28T18:51:26.760Z,2.78
2022-12-28T18:53:53.535Z,2.80
2022-12-28T18:56:20.218Z,2.76
2022-12-28T18:58:50.351Z,2.75
2022-12-28T19:02:03.958Z,2.68
2022-12-28T19:04:05.787Z,2.72
2022-12-28T19:06:32.820Z,2.70
2022-12-28T19:08:59.912Z,2.73
2022-12-28T19:11:26.559Z,2.80
2022-12-28T19:13:52.983Z,2.75
2022-12-28T19:16:23.206Z,2.70
2022-12-28T19:18:55.210Z,2.74
2022-12-28T19:21:53.640Z,2.72
2022-12-28T19:24:23.636Z,2.81
2022-12-28T19:26:50.105Z,2.81
2022-12-28T19:29:16.807Z,2.83
2022-12-28T19:31:43.569Z,2.83
2022-12-28T19:34:10.028Z,2.83
2022-12-28T19:36:36.508Z,2.83
2022-12-28T19:39:03.103Z,2.84
2022-12-28T19:41:29.651Z,2.80
2022-12-28T19:43:56.398Z,2.76
2022-12-28T19:46:30.793Z,2.76
2022-12-28T19:48:58.337Z,2.76
2022-12-28T19:51:30.732Z,2.82
2022-12-28T19:53:58.407Z,2.76
2022-12-28T19:56:25.054Z,2.81
2022-12-28T19:58:51.665Z,2.82
2022-12-28T20:01:22.205Z,2.86
2022-12-28T20:03:48.896Z,2.91
2022-12-28T20:06:18.415Z,2.92
2022-12-28T20:08:45.626Z,3.00
2022-12-28T20:11:12.147Z,2.98
2022-12-28T20:13:38.703Z,3.02
2022-12-28T20:16:05.358Z,3.04
2022-12-28T20:18:32.036Z,3.10
2022-12-28T20:21:19.287Z,3.05
2022-12-28T20:23:48.119Z,3.03
2022-12-28T20:26:14.551Z,3.06
2022-12-28T20:28:41.006Z,3.02
2022-12-28T20:31:08.156Z,2.99
2022-12-28T20:33:35.159Z,2.96
2022-12-28T20:36:02.490Z,2.93
2022-12-28T20:38:31.930Z,2.94
2022-12-28T20:41:05.204Z,2.93
2022-12-28T20:43:31.862Z,2.90
2022-12-28T20:45:58.335Z,2.87
2022-12-28T20:48:27.013Z,2.85
2022-12-28T20:51:00.049Z,2.81
2022-12-28T20:53:27.220Z,2.75
2022-12-28T20:55:53.759Z,2.67
2022-12-28T20:58:20.332Z,2.64
2022-12-28T21:00:46.892Z,2.63
2022-12-28T21:03:13.376Z,2.63
2022-12-28T21:05:39.901Z,2.60
2022-12-28T21:08:06.444Z,2.59
2022-12-28T21:10:32.915Z,2.64
2022-12-28T21:12:59.522Z,2.67
2022-12-28T21:15:26.157Z,2.67
2022-12-28T21:17:52.771Z,2.66
2022-12-28T21:20:19.249Z,2.64
2022-12-28T21:22:45.700Z,2.70
2022-12-28T21:25:12.131Z,2.76
2022-12-28T21:27:38.599Z,2.72
2022-12-28T21:30:05.346Z,2.77
2022-12-28T21:32:31.825Z,2.84
2022-12-28T21:34:58.561Z,2.77
2022-12-28T21:37:34.307Z,2.76
2022-12-28T21:40:01.507Z,2.71
2022-12-28T21:42:27.963Z,2.67
2022-12-28T21:44:54.465Z,2.57
2022-12-28T21:47:20.894Z,2.55
2022-12-28T21:49:47.382Z,2.55
2022-12-28T21:52:14.067Z,2.51
2022-12-28T21:54:40.659Z,2.51
2022-12-28T21:57:07.205Z,2.54
2022-12-28T21:59:33.689Z,2.57
2022-12-28T22:02:19.302Z,2.54
2022-12-28T22:05:04.712Z,2.54
2022-12-28T22:07:31.429Z,2.53
2022-12-28T22:10:16.564Z,2.50
2022-12-28T22:12:43.239Z,2.50
2022-12-28T22:15:38.088Z,2.47
2022-12-28T22:18:05.404Z,2.48
2022-12-28T22:20:31.932Z,2.51
2022-12-28T22:22:59.638Z,2.53
2022-12-28T22:25:26.458Z,2.51
2022-12-28T22:27:53.074Z,2.48
2022-12-28T22:30:19.730Z,2.49
2022-12-28T22:32:46.236Z,2.45
2022-12-28T22:35:12.881Z,2.46
2022-12-28T22:37:39.477Z,2.43
2022-12-28T22:40:06.159Z,2.46
2022-12-28T22:42:32.786Z,2.47
2022-12-28T22:44:59.571Z,2.50
2022-12-28T22:47:34.232Z,2.51
2022-12-28T22:50:00.691Z,2.51
2022-12-28T22:52:27.229Z,2.59
2022-12-28T22:54:53.698Z,2.56
2022-12-28T22:57:20.261Z,2.57
2022-12-28T22:59:46.815Z,2.59
2022-12-28T23:02:13.543Z,2.60
2022-12-28T23:04:40.245Z,2.62
2022-12-28T23:07:11.805Z,2.61
2022-12-28T23:09:38.310Z,2.61
2022-12-28T23:12:04.846Z,2.56
2022-12-28T23:14:49.885Z,2.53
2022-12-28T23:17:16.525Z,2.51
2022-12-28T23:20:01.544Z,2.54
2022-12-28T23:22:47.435Z,2.50
2022-12-28T23:25:33.186Z,2.49
2022-12-28T23:28:00.071Z,2.47
2022-12-28T23:30:26.856Z,2.50
2022-12-28T23:32:53.375Z,2.55
2022-12-28T23:35:20.054Z,2.57
2022-12-28T23:37:46.614Z,2.60
2022-12-28T23:40:13.573Z,2.63
2022-12-28T23:42:40.370Z,2.67
2022-12-28T23:45:07.580Z,2.75
2022-12-28T23:47:34.217Z,2.72
2022-12-28T23:50:00.926Z,2.75
2022-12-28T23:52:27.652Z,2.74
2022-12-28T23:54:54.100Z,2.72
2022-12-28T23:57:21.128Z,2.74
2022-12-28T23:59:47.746Z,2.79
